sensor_id;sensor_type;location;lat;lon;timestamp;temperature;humidity
16881;DHT22;8557;52.068;5.198;2022-11-15T00:00:13;7.70;99.90
16881;DHT22;8557;52.068;5.198;2022-11-15T00:02:40;7.70;99.90
16881;DHT22;8557;52.068;5.198;2022-11-15T00:05:08;7.70;99.90
16881;DHT22;8557;52.068;5.198;2022-11-15T00:07:35;7.80;99.90
16881;DHT22;8557;52.068;5.198;2022-11-15T00:10:02;7.80;99.90
16881;DHT22;8557;52.068;5.198;2022-11-15T00:12:28;7.90;99.90
16881;DHT22;8557;52.068;5.198;2022-11-15T00:14:55;7.90;99.90
16881;DHT22;8557;52.068;5.198;2022-11-15T00:17:22;7.90;99.90
16881;DHT22;8557;52.068;5.198;2022-11-15T00:19:48;7.80;99.90
16881;DHT22;8557;52.068;5.198;2022-11-15T00:22:17;7.90;99.90
16881;DHT22;8557;52.068;5.198;2022-11-15T00:24:43;7.80;99.90
16881;DHT22;8557;52.068;5.198;2022-11-15T00:27:10;7.90;99.90
16881;DHT22;8557;52.068;5.198;2022-11-15T00:29:37;7.80;99.90
16881;DHT22;8557;52.068;5.198;2022-11-15T00:32:08;7.70;99.90
16881;DHT22;8557;52.068;5.198;2022-11-15T00:34:35;7.70;99.90
16881;DHT22;8557;52.068;5.198;2022-11-15T00:37:02;7.70;99.90
16881;DHT22;8557;52.068;5.198;2022-11-15T00:39:30;7.70;99.90
16881;DHT22;8557;52.068;5.198;2022-11-15T00:41:56;7.80;99.90
16881;DHT22;8557;52.068;5.198;2022-11-15T00:44:23;7.80;99.90
16881;DHT22;8557;52.068;5.198;2022-11-15T00:46:50;7.90;99.90
16881;DHT22;8557;52.068;5.198;2022-11-15T00:49:17;7.80;99.90
16881;DHT22;8557;52.068;5.198;2022-11-15T00:51:43;7.70;99.90
16881;DHT22;8557;52.068;5.198;2022-11-15T00:54:10;7.80;99.90
16881;DHT22;8557;52.068;5.198;2022-11-15T00:56:38;7.80;99.90
16881;DHT22;8557;52.068;5.198;2022-11-15T00:59:05;7.80;99.90
16881;DHT22;8557;52.068;5.198;2022-11-15T01:01:32;7.80;99.90
16881;DHT22;8557;52.068;5.198;2022-11-15T01:03:58;7.90;99.90
16881;DHT22;8557;52.068;5.198;2022-11-15T01:06:25;8.00;99.90
16881;DHT22;8557;52.068;5.198;2022-11-15T01:08:52;7.90;99.90
16881;DHT22;8557;52.068;5.198;2022-11-15T01:11:19;7.80;99.90
16881;DHT22;8557;52.068;5.198;2022-11-15T01:13:47;7.90;99.90
16881;DHT22;8557;52.068;5.198;2022-11-15T01:16:15;7.90;99.90
16881;DHT22;8557;52.068;5.198;2022-11-15T01:18:44;7.90;99.90
16881;DHT22;8557;52.068;5.198;2022-11-15T01:21:12;7.90;99.90
16881;DHT22;8557;52.068;5.198;2022-11-15T01:23:40;7.90;99.90
16881;DHT22;8557;52.068;5.198;2022-11-15T01:26:10;8.00;99.90
16881;DHT22;8557;52.068;5.198;2022-11-15T01:28:39;8.00;99.90
16881;DHT22;8557;52.068;5.198;2022-11-15T01:31:11;8.00;99.90
16881;DHT22;8557;52.068;5.198;2022-11-15T01:33:39;8.00;99.90
16881;DHT22;8557;52.068;5.198;2022-11-15T01:36:07;8.10;99.90
16881;DHT22;8557;52.068;5.198;2022-11-15T01:38:34;8.10;99.90
16881;DHT22;8557;52.068;5.198;2022-11-15T01:41:01;8.10;99.90
16881;DHT22;8557;52.068;5.198;2022-11-15T01:43:29;8.10;99.90
16881;DHT22;8557;52.068;5.198;2022-11-15T01:45:59;8.10;99.90
16881;DHT22;8557;52.068;5.198;2022-11-15T01:48:31;8.10;99.90
16881;DHT22;8557;52.068;5.198;2022-11-15T01:50:59;8.10;99.90
16881;DHT22;8557;52.068;5.198;2022-11-15T01:53:26;8.10;99.90
16881;DHT22;8557;52.068;5.198;2022-11-15T01:55:54;8.10;99.90
16881;DHT22;8557;52.068;5.198;2022-11-15T01:58:21;8.20;99.90
16881;DHT22;8557;52.068;5.198;2022-11-15T02:00:48;8.20;99.90
16881;DHT22;8557;52.068;5.198;2022-11-15T02:03:16;8.30;99.90
16881;DHT22;8557;52.068;5.198;2022-11-15T02:05:44;8.30;99.90
16881;DHT22;8557;52.068;5.198;2022-11-15T02:08:11;8.40;99.90
16881;DHT22;8557;52.068;5.198;2022-11-15T02:13:13;8.40;99.90
16881;DHT22;8557;52.068;5.198;2022-11-15T02:15:44;8.40;99.90
16881;DHT22;8557;52.068;5.198;2022-11-15T02:18:22;8.40;99.90
16881;DHT22;8557;52.068;5.198;2022-11-15T02:21:04;8.50;99.90
16881;DHT22;8557;52.068;5.198;2022-11-15T02:23:57;8.50;99.90
16881;DHT22;8557;52.068;5.198;2022-11-15T02:29:37;8.60;99.90
16881;DHT22;8557;52.068;5.198;2022-11-15T02:32:14;8.60;99.90
16881;DHT22;8557;52.068;5.198;2022-11-15T02:34:50;8.60;99.90
16881;DHT22;8557;52.068;5.198;2022-11-15T02:37:23;8.70;99.90
16881;DHT22;8557;52.068;5.198;2022-11-15T02:39:59;8.70;99.90
16881;DHT22;8557;52.068;5.198;2022-11-15T02:42:32;8.70;99.90
16881;DHT22;8557;52.068;5.198;2022-11-15T02:45:20;8.60;99.90
16881;DHT22;8557;52.068;5.198;2022-11-15T02:47:53;8.60;99.90
16881;DHT22;8557;52.068;5.198;2022-11-15T02:50:25;8.70;99.90
16881;DHT22;8557;52.068;5.198;2022-11-15T02:52:52;8.80;99.90
16881;DHT22;8557;52.068;5.198;2022-11-15T02:55:28;8.80;99.90
16881;DHT22;8557;52.068;5.198;2022-11-15T02:58:07;8.80;99.90
16881;DHT22;8557;52.068;5.198;2022-11-15T03:00:42;8.90;99.90
16881;DHT22;8557;52.068;5.198;2022-11-15T03:03:25;8.90;99.90
16881;DHT22;8557;52.068;5.198;2022-11-15T03:06:00;8.90;99.90
16881;DHT22;8557;52.068;5.198;2022-11-15T03:08:33;9.00;99.90
16881;DHT22;8557;52.068;5.198;2022-11-15T03:11:08;8.90;99.90
16881;DHT22;8557;52.068;5.198;2022-11-15T03:13:39;9.00;99.90
16881;DHT22;8557;52.068;5.198;2022-11-15T03:16:12;9.00;99.90
16881;DHT22;8557;52.068;5.198;2022-11-15T03:18:45;9.10;99.90
16881;DHT22;8557;52.068;5.198;2022-11-15T03:21:15;9.10;99.90
16881;DHT22;8557;52.068;5.198;2022-11-15T03:23:43;9.20;99.90
16881;DHT22;8557;52.068;5.198;2022-11-15T03:26:13;9.20;99.90
16881;DHT22;8557;52.068;5.198;2022-11-15T03:28:43;9.20;99.90
16881;DHT22;8557;52.068;5.198;2022-11-15T03:31:15;9.30;99.90
16881;DHT22;8557;52.068;5.198;2022-11-15T03:34:05;9.40;99.90
16881;DHT22;8557;52.068;5.198;2022-11-15T03:36:34;9.50;99.90
16881;DHT22;8557;52.068;5.198;2022-11-15T03:39:04;9.60;99.90
16881;DHT22;8557;52.068;5.198;2022-11-15T03:41:39;9.70;99.90
16881;DHT22;8557;52.068;5.198;2022-11-15T03:44:13;9.80;99.90
16881;DHT22;8557;52.068;5.198;2022-11-15T03:46:46;9.90;99.90
16881;DHT22;8557;52.068;5.198;2022-11-15T03:49:19;10.00;99.90
16881;DHT22;8557;52.068;5.198;2022-11-15T03:51:48;10.00;99.90
16881;DHT22;8557;52.068;5.198;2022-11-15T03:54:15;10.00;99.90
16881;DHT22;8557;52.068;5.198;2022-11-15T03:56:42;10.10;99.90
16881;DHT22;8557;52.068;5.198;2022-11-15T03:59:08;10.10;99.90
16881;DHT22;8557;52.068;5.198;2022-11-15T04:01:35;10.10;99.90
16881;DHT22;8557;52.068;5.198;2022-11-15T04:04:02;10.10;99.90
16881;DHT22;8557;52.068;5.198;2022-11-15T04:06:30;10.00;99.90
16881;DHT22;8557;52.068;5.198;2022-11-15T04:08:57;10.10;99.90
16881;DHT22;8557;52.068;5.198;2022-11-15T04:11:23;10.10;99.90
16881;DHT22;8557;52.068;5.198;2022-11-15T04:13:50;10.20;99.90
16881;DHT22;8557;52.068;5.198;2022-11-15T04:16:17;10.30;99.90
16881;DHT22;8557;52.068;5.198;2022-11-15T04:18:44;10.30;99.90
16881;DHT22;8557;52.068;5.198;2022-11-15T04:21:32;10.20;99.90
16881;DHT22;8557;52.068;5.198;2022-11-15T04:24:31;10.10;99.90
16881;DHT22;8557;52.068;5.198;2022-11-15T04:26:57;10.20;99.90
16881;DHT22;8557;52.068;5.198;2022-11-15T04:29:24;10.20;99.90
16881;DHT22;8557;52.068;5.198;2022-11-15T04:32:05;10.20;99.90
16881;DHT22;8557;52.068;5.198;2022-11-15T04:34:32;10.30;99.90
16881;DHT22;8557;52.068;5.198;2022-11-15T04:37:01;10.20;99.90
16881;DHT22;8557;52.068;5.198;2022-11-15T04:39:42;10.30;99.90
16881;DHT22;8557;52.068;5.198;2022-11-15T04:42:09;10.30;99.90
16881;DHT22;8557;52.068;5.198;2022-11-15T04:44:36;10.30;99.90
16881;DHT22;8557;52.068;5.198;2022-11-15T04:47:03;10.20;99.90
16881;DHT22;8557;52.068;5.198;2022-11-15T04:49:30;10.20;99.90
16881;DHT22;8557;52.068;5.198;2022-11-15T04:51:57;10.20;99.90
16881;DHT22;8557;52.068;5.198;2022-11-15T04:54:25;10.30;99.90
16881;DHT22;8557;52.068;5.198;2022-11-15T04:56:52;10.30;99.90
16881;DHT22;8557;52.068;5.198;2022-11-15T04:59:18;10.50;99.90
16881;DHT22;8557;52.068;5.198;2022-11-15T05:01:45;10.60;99.90
16881;DHT22;8557;52.068;5.198;2022-11-15T05:04:12;10.60;99.90
16881;DHT22;8557;52.068;5.198;2022-11-15T05:06:51;10.60;99.90
16881;DHT22;8557;52.068;5.198;2022-11-15T05:09:18;10.60;99.90
16881;DHT22;8557;52.068;5.198;2022-11-15T05:11:47;10.60;99.90
16881;DHT22;8557;52.068;5.198;2022-11-15T05:14:14;10.60;99.90
16881;DHT22;8557;52.068;5.198;2022-11-15T05:16:42;10.60;99.90
16881;DHT22;8557;52.068;5.198;2022-11-15T05:19:09;10.70;99.90
16881;DHT22;8557;52.068;5.198;2022-11-15T05:21:36;10.60;99.90
16881;DHT22;8557;52.068;5.198;2022-11-15T05:24:03;10.70;99.90
16881;DHT22;8557;52.068;5.198;2022-11-15T05:26:30;10.70;99.90
16881;DHT22;8557;52.068;5.198;2022-11-15T05:28:59;10.80;99.90
16881;DHT22;8557;52.068;5.198;2022-11-15T05:31:26;10.90;99.90
16881;DHT22;8557;52.068;5.198;2022-11-15T05:33:55;11.00;99.90
16881;DHT22;8557;52.068;5.198;2022-11-15T05:36:28;10.90;99.90
16881;DHT22;8557;52.068;5.198;2022-11-15T05:38:56;11.00;99.90
16881;DHT22;8557;52.068;5.198;2022-11-15T05:41:29;11.00;99.90
16881;DHT22;8557;52.068;5.198;2022-11-15T05:44:00;11.00;99.90
16881;DHT22;8557;52.068;5.198;2022-11-15T05:46:28;11.10;99.90
16881;DHT22;8557;52.068;5.198;2022-11-15T05:48:56;11.20;99.90
16881;DHT22;8557;52.068;5.198;2022-11-15T05:51:23;11.30;99.90
16881;DHT22;8557;52.068;5.198;2022-11-15T05:53:51;11.30;99.90
16881;DHT22;8557;52.068;5.198;2022-11-15T05:56:19;11.30;99.90
16881;DHT22;8557;52.068;5.198;2022-11-15T05:58:46;11.40;99.90
16881;DHT22;8557;52.068;5.198;2022-11-15T06:01:14;11.40;99.90
16881;DHT22;8557;52.068;5.198;2022-11-15T06:03:41;11.50;99.90
16881;DHT22;8557;52.068;5.198;2022-11-15T06:06:08;11.40;99.90
16881;DHT22;8557;52.068;5.198;2022-11-15T06:08:34;11.40;99.90
16881;DHT22;8557;52.068;5.198;2022-11-15T06:11:05;11.50;99.90
16881;DHT22;8557;52.068;5.198;2022-11-15T06:13:32;11.50;99.90
16881;DHT22;8557;52.068;5.198;2022-11-15T06:15:59;11.50;99.90
16881;DHT22;8557;52.068;5.198;2022-11-15T06:18:28;11.40;99.90
16881;DHT22;8557;52.068;5.198;2022-11-15T06:20:58;11.30;99.90
16881;DHT22;8557;52.068;5.198;2022-11-15T06:23:25;11.40;99.90
16881;DHT22;8557;52.068;5.198;2022-11-15T06:25:52;11.40;99.90
16881;DHT22;8557;52.068;5.198;2022-11-15T06:28:19;11.40;99.90
16881;DHT22;8557;52.068;5.198;2022-11-15T06:30:46;11.50;99.90
16881;DHT22;8557;52.068;5.198;2022-11-15T06:33:12;11.50;99.90
16881;DHT22;8557;52.068;5.198;2022-11-15T06:35:40;11.40;99.90
16881;DHT22;8557;52.068;5.198;2022-11-15T06:38:09;11.40;99.90
16881;DHT22;8557;52.068;5.198;2022-11-15T06:40:37;11.40;99.90
16881;DHT22;8557;52.068;5.198;2022-11-15T06:43:05;11.40;99.90
16881;DHT22;8557;52.068;5.198;2022-11-15T06:45:33;11.40;99.90
16881;DHT22;8557;52.068;5.198;2022-11-15T06:47:59;11.40;99.90
16881;DHT22;8557;52.068;5.198;2022-11-15T06:50:26;11.30;99.90
16881;DHT22;8557;52.068;5.198;2022-11-15T06:52:54;11.40;99.90
16881;DHT22;8557;52.068;5.198;2022-11-15T06:55:21;11.30;99.90
16881;DHT22;8557;52.068;5.198;2022-11-15T06:57:49;11.40;99.90
16881;DHT22;8557;52.068;5.198;2022-11-15T07:00:17;11.30;99.90
16881;DHT22;8557;52.068;5.198;2022-11-15T07:02:45;11.30;99.90
16881;DHT22;8557;52.068;5.198;2022-11-15T07:05:13;11.30;99.90
16881;DHT22;8557;52.068;5.198;2022-11-15T07:07:40;11.30;99.90
16881;DHT22;8557;52.068;5.198;2022-11-15T07:10:09;11.40;99.90
16881;DHT22;8557;52.068;5.198;2022-11-15T07:12:36;11.30;99.90
16881;DHT22;8557;52.068;5.198;2022-11-15T07:15:03;11.40;99.90
16881;DHT22;8557;52.068;5.198;2022-11-15T07:17:30;11.30;99.90
16881;DHT22;8557;52.068;5.198;2022-11-15T07:19:57;11.30;99.90
16881;DHT22;8557;52.068;5.198;2022-11-15T07:22:24;11.30;99.90
16881;DHT22;8557;52.068;5.198;2022-11-15T07:24:51;11.40;99.90
16881;DHT22;8557;52.068;5.198;2022-11-15T07:27:19;11.40;99.90
16881;DHT22;8557;52.068;5.198;2022-11-15T07:29:45;11.30;99.90
16881;DHT22;8557;52.068;5.198;2022-11-15T07:32:12;11.30;99.90
16881;DHT22;8557;52.068;5.198;2022-11-15T07:34:39;11.30;99.90
16881;DHT22;8557;52.068;5.198;2022-11-15T07:37:06;11.30;99.90
16881;DHT22;8557;52.068;5.198;2022-11-15T07:39:32;11.30;99.90
16881;DHT22;8557;52.068;5.198;2022-11-15T07:41:59;11.30;99.90
16881;DHT22;8557;52.068;5.198;2022-11-15T07:44:45;11.20;99.90
16881;DHT22;8557;52.068;5.198;2022-11-15T07:47:12;11.10;99.90
16881;DHT22;8557;52.068;5.198;2022-11-15T07:49:39;11.00;99.90
16881;DHT22;8557;52.068;5.198;2022-11-15T07:52:05;11.10;99.90
16881;DHT22;8557;52.068;5.198;2022-11-15T07:54:32;11.20;99.90
16881;DHT22;8557;52.068;5.198;2022-11-15T07:56:59;11.20;99.90
16881;DHT22;8557;52.068;5.198;2022-11-15T07:59:26;11.20;99.90
16881;DHT22;8557;52.068;5.198;2022-11-15T08:01:54;11.30;99.90
16881;DHT22;8557;52.068;5.198;2022-11-15T08:04:20;11.30;99.90
16881;DHT22;8557;52.068;5.198;2022-11-15T08:06:47;11.30;99.90
16881;DHT22;8557;52.068;5.198;2022-11-15T08:09:14;11.20;99.90
16881;DHT22;8557;52.068;5.198;2022-11-15T08:11:41;11.20;99.90
16881;DHT22;8557;52.068;5.198;2022-11-15T08:14:07;11.30;99.90
16881;DHT22;8557;52.068;5.198;2022-11-15T08:16:34;11.30;99.90
16881;DHT22;8557;52.068;5.198;2022-11-15T08:19:02;11.30;99.90
16881;DHT22;8557;52.068;5.198;2022-11-15T08:21:29;11.40;99.90
16881;DHT22;8557;52.068;5.198;2022-11-15T08:23:56;11.50;99.90
16881;DHT22;8557;52.068;5.198;2022-11-15T08:26:23;11.50;99.90
16881;DHT22;8557;52.068;5.198;2022-11-15T08:28:50;11.50;99.90
16881;DHT22;8557;52.068;5.198;2022-11-15T08:31:18;11.50;99.90
16881;DHT22;8557;52.068;5.198;2022-11-15T08:33:45;11.50;99.90
16881;DHT22;8557;52.068;5.198;2022-11-15T08:36:15;11.50;99.90
16881;DHT22;8557;52.068;5.198;2022-11-15T08:38:42;11.60;99.90
16881;DHT22;8557;52.068;5.198;2022-11-15T08:41:23;11.60;99.90
16881;DHT22;8557;52.068;5.198;2022-11-15T08:43:51;11.70;99.90
16881;DHT22;8557;52.068;5.198;2022-11-15T08:46:18;11.60;99.90
16881;DHT22;8557;52.068;5.198;2022-11-15T08:48:44;11.60;99.90
16881;DHT22;8557;52.068;5.198;2022-11-15T08:51:12;11.70;99.90
16881;DHT22;8557;52.068;5.198;2022-11-15T08:53:40;11.80;99.90
16881;DHT22;8557;52.068;5.198;2022-11-15T08:56:07;11.80;99.90
16881;DHT22;8557;52.068;5.198;2022-11-15T08:58:34;11.80;99.90
16881;DHT22;8557;52.068;5.198;2022-11-15T09:01:01;11.90;99.90
16881;DHT22;8557;52.068;5.198;2022-11-15T09:03:28;11.90;99.90
16881;DHT22;8557;52.068;5.198;2022-11-15T09:05:55;11.90;99.90
16881;DHT22;8557;52.068;5.198;2022-11-15T09:08:24;11.90;99.90
16881;DHT22;8557;52.068;5.198;2022-11-15T09:10:51;11.90;99.90
16881;DHT22;8557;52.068;5.198;2022-11-15T09:13:18;11.90;99.90
16881;DHT22;8557;52.068;5.198;2022-11-15T09:15:44;11.90;99.90
16881;DHT22;8557;52.068;5.198;2022-11-15T09:18:11;11.90;99.90
16881;DHT22;8557;52.068;5.198;2022-11-15T09:20:38;11.90;99.90
16881;DHT22;8557;52.068;5.198;2022-11-15T09:23:05;11.90;99.90
16881;DHT22;8557;52.068;5.198;2022-11-15T09:25:34;12.00;99.90
16881;DHT22;8557;52.068;5.198;2022-11-15T09:28:00;12.10;99.90
16881;DHT22;8557;52.068;5.198;2022-11-15T09:30:31;12.10;99.90
16881;DHT22;8557;52.068;5.198;2022-11-15T09:32:58;12.10;99.90
16881;DHT22;8557;52.068;5.198;2022-11-15T09:35:25;12.00;99.90
16881;DHT22;8557;52.068;5.198;2022-11-15T09:37:52;12.00;99.90
16881;DHT22;8557;52.068;5.198;2022-11-15T09:40:19;12.00;99.90
16881;DHT22;8557;52.068;5.198;2022-11-15T09:43:03;12.10;99.90
16881;DHT22;8557;52.068;5.198;2022-11-15T09:45:34;12.20;99.90
16881;DHT22;8557;52.068;5.198;2022-11-15T09:48:40;12.30;99.90
16881;DHT22;8557;52.068;5.198;2022-11-15T09:51:22;12.50;99.90
16881;DHT22;8557;52.068;5.198;2022-11-15T09:53:56;12.40;99.90
16881;DHT22;8557;52.068;5.198;2022-11-15T09:56:26;12.50;99.90
16881;DHT22;8557;52.068;5.198;2022-11-15T09:59:02;12.50;99.90
16881;DHT22;8557;52.068;5.198;2022-11-15T10:01:39;12.50;99.90
16881;DHT22;8557;52.068;5.198;2022-11-15T10:04:08;12.50;99.90
16881;DHT22;8557;52.068;5.198;2022-11-15T10:06:38;12.60;99.90
16881;DHT22;8557;52.068;5.198;2022-11-15T10:09:11;12.60;99.90
16881;DHT22;8557;52.068;5.198;2022-11-15T10:11:39;12.70;99.90
16881;DHT22;8557;52.068;5.198;2022-11-15T10:14:11;12.80;99.90
16881;DHT22;8557;52.068;5.198;2022-11-15T10:19:37;12.90;99.90
16881;DHT22;8557;52.068;5.198;2022-11-15T10:22:16;13.00;99.90
16881;DHT22;8557;52.068;5.198;2022-11-15T10:24:46;13.00;99.90
16881;DHT22;8557;52.068;5.198;2022-11-15T10:27:15;13.00;99.90
16881;DHT22;8557;52.068;5.198;2022-11-15T10:29:47;13.00;99.90
16881;DHT22;8557;52.068;5.198;2022-11-15T10:32:18;13.00;99.90
16881;DHT22;8557;52.068;5.198;2022-11-15T10:34:45;12.90;99.90
16881;DHT22;8557;52.068;5.198;2022-11-15T10:37:13;12.90;99.90
16881;DHT22;8557;52.068;5.198;2022-11-15T10:39:39;12.80;99.90
16881;DHT22;8557;52.068;5.198;2022-11-15T10:42:17;12.80;99.90
16881;DHT22;8557;52.068;5.198;2022-11-15T10:44:46;12.80;99.90
16881;DHT22;8557;52.068;5.198;2022-11-15T10:47:33;12.80;99.90
16881;DHT22;8557;52.068;5.198;2022-11-15T10:50:07;12.90;99.90
16881;DHT22;8557;52.068;5.198;2022-11-15T10:52:45;13.00;99.90
16881;DHT22;8557;52.068;5.198;2022-11-15T10:55:23;13.00;99.90
16881;DHT22;8557;52.068;5.198;2022-11-15T10:57:52;13.10;99.90
16881;DHT22;8557;52.068;5.198;2022-11-15T11:00:33;13.10;99.90
16881;DHT22;8557;52.068;5.198;2022-11-15T11:03:02;13.20;99.90
16881;DHT22;8557;52.068;5.198;2022-11-15T11:05:31;13.30;99.90
16881;DHT22;8557;52.068;5.198;2022-11-15T11:08:00;13.30;99.90
16881;DHT22;8557;52.068;5.198;2022-11-15T11:10:28;13.30;99.90
16881;DHT22;8557;52.068;5.198;2022-11-15T11:12:55;13.40;99.90
16881;DHT22;8557;52.068;5.198;2022-11-15T11:15:24;13.50;99.90
16881;DHT22;8557;52.068;5.198;2022-11-15T11:18:02;13.60;99.90
16881;DHT22;8557;52.068;5.198;2022-11-15T11:20:38;13.70;99.90
16881;DHT22;8557;52.068;5.198;2022-11-15T11:23:20;13.60;99.90
16881;DHT22;8557;52.068;5.198;2022-11-15T11:26:01;13.60;99.90
16881;DHT22;8557;52.068;5.198;2022-11-15T11:28:39;13.60;99.90
16881;DHT22;8557;52.068;5.198;2022-11-15T11:31:17;13.70;99.90
16881;DHT22;8557;52.068;5.198;2022-11-15T11:33:52;13.60;99.90
16881;DHT22;8557;52.068;5.198;2022-11-15T11:36:26;13.40;99.90
16881;DHT22;8557;52.068;5.198;2022-11-15T11:39:00;13.50;99.90
16881;DHT22;8557;52.068;5.198;2022-11-15T11:41:55;13.60;99.90
16881;DHT22;8557;52.068;5.198;2022-11-15T11:44:30;13.70;99.90
16881;DHT22;8557;52.068;5.198;2022-11-15T11:47:00;13.70;99.90
16881;DHT22;8557;52.068;5.198;2022-11-15T11:49:33;13.80;99.90
16881;DHT22;8557;52.068;5.198;2022-11-15T11:52:07;13.90;99.90
16881;DHT22;8557;52.068;5.198;2022-11-15T11:54:40;13.90;99.90
16881;DHT22;8557;52.068;5.198;2022-11-15T11:57:15;13.90;99.90
16881;DHT22;8557;52.068;5.198;2022-11-15T11:59:47;13.90;99.90
16881;DHT22;8557;52.068;5.198;2022-11-15T12:02:20;14.00;99.90
16881;DHT22;8557;52.068;5.198;2022-11-15T12:04:51;14.10;90.40
16881;DHT22;8557;52.068;5.198;2022-11-15T12:07:22;14.30;90.10
16881;DHT22;8557;52.068;5.198;2022-11-15T12:09:55;14.30;68.20
16881;DHT22;8557;52.068;5.198;2022-11-15T12:12:30;14.40;58.50
16881;DHT22;8557;52.068;5.198;2022-11-15T12:15:01;14.50;40.00
16881;DHT22;8557;52.068;5.198;2022-11-15T12:17:30;14.50;24.10
16881;DHT22;8557;52.068;5.198;2022-11-15T12:22:35;14.60;1.00
16881;DHT22;8557;52.068;5.198;2022-11-15T12:25:07;14.60;1.00
16881;DHT22;8557;52.068;5.198;2022-11-15T12:27:38;14.80;1.00
16881;DHT22;8557;52.068;5.198;2022-11-15T12:30:11;14.90;1.00
16881;DHT22;8557;52.068;5.198;2022-11-15T12:32:48;15.00;1.00
16881;DHT22;8557;52.068;5.198;2022-11-15T12:35:25;15.00;1.00
16881;DHT22;8557;52.068;5.198;2022-11-15T12:37:53;15.00;1.00
16881;DHT22;8557;52.068;5.198;2022-11-15T12:40:28;15.00;1.00
16881;DHT22;8557;52.068;5.198;2022-11-15T12:46:19;15.00;1.00
16881;DHT22;8557;52.068;5.198;2022-11-15T12:48:49;15.10;1.00
16881;DHT22;8557;52.068;5.198;2022-11-15T12:51:20;15.00;1.00
16881;DHT22;8557;52.068;5.198;2022-11-15T12:53:47;15.00;1.00
16881;DHT22;8557;52.068;5.198;2022-11-15T12:56:22;15.00;1.00
16881;DHT22;8557;52.068;5.198;2022-11-15T12:58:53;14.90;1.00
16881;DHT22;8557;52.068;5.198;2022-11-15T13:01:56;14.90;1.00
16881;DHT22;8557;52.068;5.198;2022-11-15T13:04:29;14.80;1.00
16881;DHT22;8557;52.068;5.198;2022-11-15T13:07:00;14.60;1.00
16881;DHT22;8557;52.068;5.198;2022-11-15T13:09:53;14.60;1.00
16881;DHT22;8557;52.068;5.198;2022-11-15T13:12:53;14.70;1.00
16881;DHT22;8557;52.068;5.198;2022-11-15T13:15:51;14.50;1.00
16881;DHT22;8557;52.068;5.198;2022-11-15T13:18:31;14.50;1.00
16881;DHT22;8557;52.068;5.198;2022-11-15T13:20:59;14.40;1.00
16881;DHT22;8557;52.068;5.198;2022-11-15T13:23:27;14.30;1.00
16881;DHT22;8557;52.068;5.198;2022-11-15T13:26:09;14.20;1.00
16881;DHT22;8557;52.068;5.198;2022-11-15T13:28:38;14.20;1.00
16881;DHT22;8557;52.068;5.198;2022-11-15T13:31:24;14.20;1.00
16881;DHT22;8557;52.068;5.198;2022-11-15T13:33:51;14.20;1.00
16881;DHT22;8557;52.068;5.198;2022-11-15T13:36:22;14.30;1.00
16881;DHT22;8557;52.068;5.198;2022-11-15T13:38:59;14.20;1.00
16881;DHT22;8557;52.068;5.198;2022-11-15T13:41:27;14.20;1.00
16881;DHT22;8557;52.068;5.198;2022-11-15T13:43:55;14.10;1.00
16881;DHT22;8557;52.068;5.198;2022-11-15T13:46:23;14.00;1.00
16881;DHT22;8557;52.068;5.198;2022-11-15T13:48:56;13.90;1.00
16881;DHT22;8557;52.068;5.198;2022-11-15T13:51:32;13.90;1.00
16881;DHT22;8557;52.068;5.198;2022-11-15T13:54:07;13.80;1.00
16881;DHT22;8557;52.068;5.198;2022-11-15T13:56:35;13.70;20.30
16881;DHT22;8557;52.068;5.198;2022-11-15T13:59:09;13.70;38.80
16881;DHT22;8557;52.068;5.198;2022-11-15T14:01:35;13.70;17.20
16881;DHT22;8557;52.068;5.198;2022-11-15T14:04:03;13.60;36.40
16881;DHT22;8557;52.068;5.198;2022-11-15T14:06:30;13.50;73.40
16881;DHT22;8557;52.068;5.198;2022-11-15T14:09:14;13.50;71.00
16881;DHT22;8557;52.068;5.198;2022-11-15T14:11:50;13.50;82.50
16881;DHT22;8557;52.068;5.198;2022-11-15T14:14:20;13.40;91.00
16881;DHT22;8557;52.068;5.198;2022-11-15T14:16:49;13.40;91.10
16881;DHT22;8557;52.068;5.198;2022-11-15T14:22:10;13.20;99.50
16881;DHT22;8557;52.068;5.198;2022-11-15T14:24:40;13.30;94.90
16881;DHT22;8557;52.068;5.198;2022-11-15T14:27:24;13.20;95.60
16881;DHT22;8557;52.068;5.198;2022-11-15T14:29:51;13.20;95.50
16881;DHT22;8557;52.068;5.198;2022-11-15T14:32:19;13.20;95.00
16881;DHT22;8557;52.068;5.198;2022-11-15T14:34:47;13.20;99.80
16881;DHT22;8557;52.068;5.198;2022-11-15T14:37:25;13.20;99.90
16881;DHT22;8557;52.068;5.198;2022-11-15T14:39:53;13.10;99.90
16881;DHT22;8557;52.068;5.198;2022-11-15T14:42:21;13.10;99.90
16881;DHT22;8557;52.068;5.198;2022-11-15T14:44:48;13.10;99.90
16881;DHT22;8557;52.068;5.198;2022-11-15T14:47:15;13.00;99.90
16881;DHT22;8557;52.068;5.198;2022-11-15T14:49:42;13.00;99.90
16881;DHT22;8557;52.068;5.198;2022-11-15T14:52:25;12.90;99.90
16881;DHT22;8557;52.068;5.198;2022-11-15T14:54:55;12.90;99.90
16881;DHT22;8557;52.068;5.198;2022-11-15T14:57:23;12.90;99.90
16881;DHT22;8557;52.068;5.198;2022-11-15T14:59:51;12.80;99.90
16881;DHT22;8557;52.068;5.198;2022-11-15T15:02:19;12.80;99.90
16881;DHT22;8557;52.068;5.198;2022-11-15T15:04:47;12.80;99.90
16881;DHT22;8557;52.068;5.198;2022-11-15T15:07:14;12.80;99.90
16881;DHT22;8557;52.068;5.198;2022-11-15T15:09:41;12.80;99.90
16881;DHT22;8557;52.068;5.198;2022-11-15T15:12:15;12.70;99.90
16881;DHT22;8557;52.068;5.198;2022-11-15T15:14:43;12.80;99.90
16881;DHT22;8557;52.068;5.198;2022-11-15T15:17:09;12.70;99.90
16881;DHT22;8557;52.068;5.198;2022-11-15T15:19:36;12.80;97.20
16881;DHT22;8557;52.068;5.198;2022-11-15T15:22:03;12.70;99.90
16881;DHT22;8557;52.068;5.198;2022-11-15T15:24:30;12.70;99.90
16881;DHT22;8557;52.068;5.198;2022-11-15T15:26:57;12.70;95.50
16881;DHT22;8557;52.068;5.198;2022-11-15T15:29:25;12.70;99.90
16881;DHT22;8557;52.068;5.198;2022-11-15T15:31:52;12.70;82.40
16881;DHT22;8557;52.068;5.198;2022-11-15T15:34:18;12.70;69.90
16881;DHT22;8557;52.068;5.198;2022-11-15T15:36:45;12.70;38.20
16881;DHT22;8557;52.068;5.198;2022-11-15T15:39:12;12.70;36.60
16881;DHT22;8557;52.068;5.198;2022-11-15T15:41:39;12.70;40.80
16881;DHT22;8557;52.068;5.198;2022-11-15T15:44:06;12.70;23.10
16881;DHT22;8557;52.068;5.198;2022-11-15T15:46:34;12.70;26.00
16881;DHT22;8557;52.068;5.198;2022-11-15T15:49:01;12.70;29.80
16881;DHT22;8557;52.068;5.198;2022-11-15T15:51:28;12.70;25.90
16881;DHT22;8557;52.068;5.198;2022-11-15T15:53:55;12.70;29.50
16881;DHT22;8557;52.068;5.198;2022-11-15T15:56:23;12.70;1.00
16881;DHT22;8557;52.068;5.198;2022-11-15T15:58:50;12.80;1.00
16881;DHT22;8557;52.068;5.198;2022-11-15T16:01:18;12.80;1.00
16881;DHT22;8557;52.068;5.198;2022-11-15T16:03:46;12.70;1.00
16881;DHT22;8557;52.068;5.198;2022-11-15T16:06:34;12.80;1.00
16881;DHT22;8557;52.068;5.198;2022-11-15T16:09:02;12.80;1.00
16881;DHT22;8557;52.068;5.198;2022-11-15T16:11:29;12.80;1.00
16881;DHT22;8557;52.068;5.198;2022-11-15T16:13:56;12.80;1.00
16881;DHT22;8557;52.068;5.198;2022-11-15T16:16:22;12.80;1.00
16881;DHT22;8557;52.068;5.198;2022-11-15T16:18:51;12.80;1.00
16881;DHT22;8557;52.068;5.198;2022-11-15T16:21:19;12.70;1.00
16881;DHT22;8557;52.068;5.198;2022-11-15T16:23:45;12.80;1.00
16881;DHT22;8557;52.068;5.198;2022-11-15T16:26:20;12.80;1.00
16881;DHT22;8557;52.068;5.198;2022-11-15T16:28:47;12.80;1.00